Time;durP1;ratioP1;P1;durP2;ratioP2;P2;SDS_P1;SDS_P2;PMS_P1;PMS_P2;Temp;Humidity;BMP_temperature;BMP_pressure;BME280_temperature;BME280_humidity;BME280_pressure;Samples;Min_cycle;Max_cycle;Signal;HPM_P1;HPM_P2
2021/01/14 00:02:20;;;;;;;2.90;1.83;;;;;;;;;;5013706;28;20468;-65
2021/01/14 00:04:47;;;;;;;3.67;2.07;;;;;;;;;;5012460;28;20976;-66
2021/01/14 00:07:13;;;;;;;2.53;1.60;;;;;;;;;;5013039;28;20477;-64
2021/01/14 00:09:40;;;;;;;4.47;1.50;;;;;;;;;;5018970;28;20475;-64
2021/01/14 00:12:07;;;;;;;5.13;1.60;;;;;;;;;;5018863;28;20465;-65
2021/01/14 00:14:35;;;;;;;3.53;2.20;;;;;;;;;;5021752;28;20472;-64
2021/01/14 00:17:01;;;;;;;3.63;2.30;;;;;;;;;;5015921;28;20465;-64
2021/01/14 00:19:28;;;;;;;4.30;2.30;;;;;;;;;;5014209;28;20840;-63
2021/01/14 00:21:55;;;;;;;3.77;1.90;;;;;;;;;;5013652;28;21333;-68
2021/01/14 00:24:21;;;;;;;5.00;3.57;;;;;;;;;;5014299;28;20475;-65
2021/01/14 00:26:48;;;;;;;3.40;2.60;;;;;;;;;;5014189;28;20464;-62
2021/01/14 00:29:14;;;;;;;6.00;3.07;;;;;;;;;;5013573;28;20608;-65
2021/01/14 00:31:42;;;;;;;4.73;2.30;;;;;;;;;;5012510;28;20465;-66
2021/01/14 00:34:09;;;;;;;3.50;2.00;;;;;;;;;;5012585;28;20474;-64
2021/01/14 00:37:50;;;;;;;3.63;3.07;;;;;;;;;;5026889;28;21128;-67
2021/01/14 00:39:22;;;;;;;4.30;2.07;;;;;;;;;;5028789;28;20469;-66
2021/01/14 00:41:49;;;;;;;4.17;2.10;;;;;;;;;;5024611;28;20466;-64
2021/01/14 00:44:15;;;;;;;5.33;3.50;;;;;;;;;;5027262;28;20465;-71
2021/01/14 00:46:43;;;;;;;4.63;3.50;;;;;;;;;;5031195;28;20449;-68
2021/01/14 00:49:10;;;;;;;3.47;3.17;;;;;;;;;;5027201;28;20487;-74
2021/01/14 00:51:36;;;;;;;3.83;2.90;;;;;;;;;;5025052;28;20462;-71
2021/01/14 00:54:03;;;;;;;4.97;3.80;;;;;;;;;;5031254;28;20475;-68
2021/01/14 00:56:33;;;;;;;4.53;2.50;;;;;;;;;;5029893;28;20465;-72
2021/01/14 00:59:00;;;;;;;6.10;3.33;;;;;;;;;;5025364;28;20458;-70
2021/01/14 01:01:26;;;;;;;5.23;3.67;;;;;;;;;;5028107;28;20486;-71
2021/01/14 01:03:54;;;;;;;5.50;2.97;;;;;;;;;;5027069;28;20529;-67
2021/01/14 01:06:20;;;;;;;3.13;1.60;;;;;;;;;;5027955;28;20468;-72
2021/01/14 01:08:47;;;;;;;2.60;1.67;;;;;;;;;;5035249;28;20449;-72
2021/01/14 01:11:14;;;;;;;3.83;1.87;;;;;;;;;;5035089;28;20517;-71
2021/01/14 01:13:41;;;;;;;3.67;2.40;;;;;;;;;;5035855;28;20439;-70
2021/01/14 01:16:08;;;;;;;4.03;1.70;;;;;;;;;;5036051;28;20521;-70
2021/01/14 01:18:34;;;;;;;3.67;2.60;;;;;;;;;;5031743;28;20457;-66
2021/01/14 01:21:05;;;;;;;4.03;2.20;;;;;;;;;;5012330;28;20469;-64
2021/01/14 01:23:31;;;;;;;2.00;1.70;;;;;;;;;;4993341;28;20439;-64
2021/01/14 01:25:58;;;;;;;2.67;1.40;;;;;;;;;;5002334;28;20971;-67
2021/01/14 01:28:25;;;;;;;2.40;1.77;;;;;;;;;;5012691;28;20453;-65
2021/01/14 01:30:51;;;;;;;3.07;1.70;;;;;;;;;;5012224;28;20495;-64
2021/01/14 01:33:18;;;;;;;2.57;1.50;;;;;;;;;;5012385;28;20483;-64
2021/01/14 01:35:50;;;;;;;1.97;1.53;;;;;;;;;;5012322;28;20449;-65
2021/01/14 01:38:17;;;;;;;1.80;1.30;;;;;;;;;;5011912;28;20442;-65
2021/01/14 01:40:44;;;;;;;2.13;1.67;;;;;;;;;;5010619;28;20492;-64
2021/01/14 01:43:10;;;;;;;2.23;2.03;;;;;;;;;;5012457;28;20450;-64
2021/01/14 01:45:38;;;;;;;3.10;1.40;;;;;;;;;;5012252;28;20453;-64
2021/01/14 01:48:05;;;;;;;2.20;1.43;;;;;;;;;;5011467;28;20468;-64
2021/01/14 01:50:31;;;;;;;2.50;2.00;;;;;;;;;;5011496;28;20500;-64
2021/01/14 01:52:58;;;;;;;2.70;2.50;;;;;;;;;;5011895;28;20457;-64
2021/01/14 01:55:26;;;;;;;4.33;2.57;;;;;;;;;;5014215;28;20480;-64
2021/01/14 01:57:53;;;;;;;2.43;2.23;;;;;;;;;;5015528;28;20519;-63
2021/01/14 02:00:20;;;;;;;3.10;1.73;;;;;;;;;;5015541;28;20995;-64
2021/01/14 02:02:46;;;;;;;2.37;2.17;;;;;;;;;;5015712;28;20940;-64
2021/01/14 02:05:13;;;;;;;2.73;2.53;;;;;;;;;;5015176;28;20941;-66
2021/01/14 02:07:48;;;;;;;3.17;1.70;;;;;;;;;;5014625;28;20446;-64
2021/01/14 02:10:19;;;;;;;2.37;1.67;;;;;;;;;;5015213;28;20469;-63
2021/01/14 02:12:56;;;;;;;3.23;2.30;;;;;;;;;;5015331;28;20846;-65
2021/01/14 02:15:23;;;;;;;3.27;2.87;;;;;;;;;;5015063;28;20932;-63
2021/01/14 02:17:52;;;;;;;8.50;2.17;;;;;;;;;;5014739;28;20476;-64
2021/01/14 02:20:19;;;;;;;3.13;2.80;;;;;;;;;;5014626;28;20493;-63
2021/01/14 02:22:51;;;;;;;3.53;2.10;;;;;;;;;;5015294;28;20445;-65
2021/01/14 02:25:20;;;;;;;3.73;2.73;;;;;;;;;;5015288;28;20456;-64
2021/01/14 02:27:48;;;;;;;2.57;2.37;;;;;;;;;;5014254;28;20876;-64
2021/01/14 02:30:15;;;;;;;2.87;2.57;;;;;;;;;;5015046;28;20465;-62
2021/01/14 02:32:43;;;;;;;3.00;2.80;;;;;;;;;;5014381;28;20457;-66
2021/01/14 02:35:10;;;;;;;3.30;3.00;;;;;;;;;;5014629;28;20964;-67
2021/01/14 02:37:37;;;;;;;3.87;3.57;;;;;;;;;;5014488;28;20453;-64
2021/01/14 02:40:04;;;;;;;2.90;2.70;;;;;;;;;;5014428;28;21191;-63
2021/01/14 02:42:31;;;;;;;2.80;2.20;;;;;;;;;;5014451;28;20806;-64
2021/01/14 02:44:59;;;;;;;3.90;3.50;;;;;;;;;;5014707;28;20461;-63
2021/01/14 02:47:26;;;;;;;4.43;2.90;;;;;;;;;;5014188;28;21007;-63
2021/01/14 02:49:55;;;;;;;4.47;3.73;;;;;;;;;;5013392;28;20481;-64
2021/01/14 02:52:22;;;;;;;3.70;3.40;;;;;;;;;;5014559;28;20449;-64
2021/01/14 02:54:49;;;;;;;3.97;3.27;;;;;;;;;;5014617;28;20870;-64
2021/01/14 02:57:17;;;;;;;4.43;2.20;;;;;;;;;;5014102;28;20457;-65
2021/01/14 02:59:45;;;;;;;4.67;4.27;;;;;;;;;;5014106;28;20465;-64
2021/01/14 03:02:13;;;;;;;3.10;2.80;;;;;;;;;;5014336;28;20460;-64
2021/01/14 03:04:39;;;;;;;4.63;4.23;;;;;;;;;;5014323;28;20458;-65
2021/01/14 03:07:06;;;;;;;4.20;2.80;;;;;;;;;;5013886;28;20450;-64
2021/01/14 03:09:33;;;;;;;3.03;2.73;;;;;;;;;;5013849;28;20474;-66
2021/01/14 03:12:00;;;;;;;2.90;2.63;;;;;;;;;;5014079;28;20457;-64
2021/01/14 03:14:26;;;;;;;4.20;3.57;;;;;;;;;;5014003;28;20465;-63
2021/01/14 03:16:53;;;;;;;4.80;4.40;;;;;;;;;;5014182;28;20462;-65
2021/01/14 03:19:21;;;;;;;5.80;4.30;;;;;;;;;;5012736;28;20497;-64
2021/01/14 03:21:47;;;;;;;5.60;4.97;;;;;;;;;;5013636;28;20482;-66
2021/01/14 03:24:14;;;;;;;5.47;4.83;;;;;;;;;;5013144;28;20968;-66
2021/01/14 03:26:41;;;;;;;5.10;4.60;;;;;;;;;;5013102;28;20461;-65
2021/01/14 03:29:08;;;;;;;5.83;5.20;;;;;;;;;;5013994;28;20465;-65
2021/01/14 03:31:34;;;;;;;5.87;5.47;;;;;;;;;;5013920;28;20454;-65
2021/01/14 03:34:01;;;;;;;5.77;5.00;;;;;;;;;;5014708;28;20480;-65
2021/01/14 03:36:32;;;;;;;6.10;5.50;;;;;;;;;;5019748;28;20449;-65
2021/01/14 03:38:59;;;;;;;5.83;5.33;;;;;;;;;;5014614;28;20482;-65
2021/01/14 03:41:25;;;;;;;8.40;5.50;;;;;;;;;;5011803;28;20988;-65
2021/01/14 03:43:52;;;;;;;6.93;5.57;;;;;;;;;;5013199;28;20856;-65
2021/01/14 03:46:20;;;;;;;5.90;5.20;;;;;;;;;;5013448;28;20944;-65
2021/01/14 03:48:47;;;;;;;7.67;4.93;;;;;;;;;;5012421;28;21000;-65
2021/01/14 03:51:18;;;;;;;5.40;4.90;;;;;;;;;;5014113;28;20508;-64
2021/01/14 03:53:45;;;;;;;6.50;5.90;;;;;;;;;;5012218;28;20470;-65
2021/01/14 03:56:12;;;;;;;6.43;5.83;;;;;;;;;;5012273;28;20473;-65
2021/01/14 03:58:38;;;;;;;6.27;5.63;;;;;;;;;;5012790;28;20469;-66
2021/01/14 04:01:06;;;;;;;7.40;5.60;;;;;;;;;;5012299;28;20481;-65
2021/01/14 04:03:32;;;;;;;6.67;6.07;;;;;;;;;;5012489;28;20450;-65
2021/01/14 04:05:59;;;;;;;9.00;7.10;;;;;;;;;;5013127;28;20969;-64
2021/01/14 04:08:26;;;;;;;9.50;8.50;;;;;;;;;;5011454;28;20884;-65
2021/01/14 04:10:53;;;;;;;9.03;8.23;;;;;;;;;;5012167;28;20446;-64
2021/01/14 04:13:20;;;;;;;9.07;8.27;;;;;;;;;;5012372;28;20453;-65
2021/01/14 04:15:46;;;;;;;10.00;9.00;;;;;;;;;;5012310;28;20465;-65
2021/01/14 04:18:13;;;;;;;9.83;8.20;;;;;;;;;;5011665;28;20469;-64
2021/01/14 04:20:40;;;;;;;11.10;8.97;;;;;;;;;;5011861;28;20543;-64
2021/01/14 04:23:06;;;;;;;9.57;8.57;;;;;;;;;;5011812;28;20466;-64
2021/01/14 04:25:33;;;;;;;11.03;9.80;;;;;;;;;;5012723;28;20454;-65
2021/01/14 04:28:01;;;;;;;10.40;9.37;;;;;;;;;;5012030;28;20493;-65
2021/01/14 04:30:28;;;;;;;10.43;8.57;;;;;;;;;;5012288;28;20556;-66
2021/01/14 04:33:08;;;;;;;11.20;9.20;;;;;;;;;;5009733;28;20469;-66
2021/01/14 04:35:35;;;;;;;9.80;8.80;;;;;;;;;;5010821;28;21056;-66
2021/01/14 04:38:02;;;;;;;9.93;9.10;;;;;;;;;;5012433;28;20933;-65
2021/01/14 04:40:29;;;;;;;12.43;9.07;;;;;;;;;;5010202;28;21050;-66
2021/01/14 04:42:56;;;;;;;12.03;10.77;;;;;;;;;;5012580;28;20454;-65
2021/01/14 04:45:23;;;;;;;10.67;9.60;;;;;;;;;;5011468;28;20458;-65
2021/01/14 04:47:50;;;;;;;9.83;8.83;;;;;;;;;;5011128;28;20453;-65
2021/01/14 04:50:18;;;;;;;11.33;9.80;;;;;;;;;;5011962;28;20470;-65
2021/01/14 04:52:46;;;;;;;10.17;9.27;;;;;;;;;;5010964;28;20464;-65
2021/01/14 04:55:14;;;;;;;11.23;9.23;;;;;;;;;;5010879;28;20458;-65
2021/01/14 04:57:44;;;;;;;12.33;9.67;;;;;;;;;;5012381;28;20527;-65
2021/01/14 05:00:12;;;;;;;11.60;9.00;;;;;;;;;;5008984;28;21000;-65
2021/01/14 05:02:46;;;;;;;10.30;9.10;;;;;;;;;;5012372;28;20445;-65
2021/01/14 05:05:16;;;;;;;11.13;10.00;;;;;;;;;;5010891;28;20473;-65
2021/01/14 05:07:47;;;;;;;10.73;8.53;;;;;;;;;;5011579;28;20917;-65
2021/01/14 05:10:19;;;;;;;12.00;9.53;;;;;;;;;;5011019;28;20489;-65
2021/01/14 05:12:46;;;;;;;11.60;10.27;;;;;;;;;;5012296;28;20484;-65
2021/01/14 05:15:15;;;;;;;11.70;10.10;;;;;;;;;;5010823;28;20522;-65
2021/01/14 05:17:43;;;;;;;10.57;9.57;;;;;;;;;;5011052;28;20461;-65
2021/01/14 05:20:10;;;;;;;12.27;10.17;;;;;;;;;;5011367;28;20500;-65
2021/01/14 05:22:37;;;;;;;14.80;10.47;;;;;;;;;;5011383;28;20476;-65
2021/01/14 05:25:05;;;;;;;11.57;10.47;;;;;;;;;;5011001;28;20476;-65
2021/01/14 05:27:32;;;;;;;12.57;11.00;;;;;;;;;;5011558;28;20473;-64
2021/01/14 05:30:05;;;;;;;11.93;10.50;;;;;;;;;;5014605;28;20534;-65
2021/01/14 05:32:35;;;;;;;13.17;10.83;;;;;;;;;;5015076;28;20461;-66
2021/01/14 05:35:05;;;;;;;12.30;11.10;;;;;;;;;;5016215;28;20465;-65
2021/01/14 05:37:33;;;;;;;11.73;10.63;;;;;;;;;;5015447;28;20552;-65
2021/01/14 05:39:59;;;;;;;11.57;10.37;;;;;;;;;;5014403;28;20485;-65
2021/01/14 05:42:26;;;;;;;11.97;10.77;;;;;;;;;;5016089;28;20457;-65
2021/01/14 05:44:53;;;;;;;12.43;11.20;;;;;;;;;;5014731;28;20461;-65
2021/01/14 05:47:20;;;;;;;12.20;10.83;;;;;;;;;;5015760;28;20445;-65
2021/01/14 05:49:54;;;;;;;11.33;10.00;;;;;;;;;;5013607;28;20619;-65
2021/01/14 05:52:24;;;;;;;10.00;9.20;;;;;;;;;;5014056;28;20461;-65
2021/01/14 05:54:54;;;;;;;11.57;10.27;;;;;;;;;;5014786;28;20863;-65
2021/01/14 05:57:20;;;;;;;12.00;10.80;;;;;;;;;;5015381;28;20472;-65
2021/01/14 05:59:51;;;;;;;15.13;10.80;;;;;;;;;;5013928;28;20484;-65
2021/01/14 06:02:27;;;;;;;12.37;11.07;;;;;;;;;;5015056;28;20979;-65
2021/01/14 06:04:54;;;;;;;11.20;10.10;;;;;;;;;;5015056;28;20446;-65
2021/01/14 06:07:22;;;;;;;11.47;10.03;;;;;;;;;;5011671;28;20833;-65
2021/01/14 06:09:48;;;;;;;10.63;9.53;;;;;;;;;;5014697;28;20489;-65
2021/01/14 06:12:15;;;;;;;11.70;10.27;;;;;;;;;;5015374;28;20455;-65
2021/01/14 06:14:42;;;;;;;10.40;9.33;;;;;;;;;;5014736;28;20465;-66
2021/01/14 06:17:09;;;;;;;9.63;8.73;;;;;;;;;;5014948;28;20458;-66
2021/01/14 06:19:36;;;;;;;10.20;9.20;;;;;;;;;;5014330;28;20504;-66
2021/01/14 06:22:04;;;;;;;11.30;10.20;;;;;;;;;;5014478;28;20491;-66
2021/01/14 06:24:36;;;;;;;10.83;9.73;;;;;;;;;;5014843;28;20466;-66
2021/01/14 06:27:09;;;;;;;11.47;10.03;;;;;;;;;;5014022;28;20606;-66
2021/01/14 06:29:37;;;;;;;10.53;9.47;;;;;;;;;;5013527;28;20511;-66
2021/01/14 06:32:08;;;;;;;11.53;10.20;;;;;;;;;;5014706;28;20441;-67
2021/01/14 06:34:35;;;;;;;11.60;9.57;;;;;;;;;;5014479;28;20458;-66
2021/01/14 06:37:10;;;;;;;10.47;9.53;;;;;;;;;;5014712;28;20460;-66
2021/01/14 06:39:46;;;;;;;9.90;8.97;;;;;;;;;;5012123;28;20493;-67
2021/01/14 06:42:17;;;;;;;11.63;10.33;;;;;;;;;;5014450;28;20473;-66
2021/01/14 06:44:50;;;;;;;11.50;9.60;;;;;;;;;;5014195;28;20537;-65
2021/01/14 06:47:24;;;;;;;13.10;9.63;;;;;;;;;;5015026;28;20449;-66
2021/01/14 06:50:06;;;;;;;11.00;9.83;;;;;;;;;;5013139;28;20523;-67
2021/01/14 06:52:33;;;;;;;12.77;9.40;;;;;;;;;;5014177;28;20472;-68
2021/01/14 06:55:01;;;;;;;10.20;9.20;;;;;;;;;;5014179;28;20480;-68
2021/01/14 06:57:32;;;;;;;10.70;9.60;;;;;;;;;;5015376;28;20469;-69
2021/01/14 06:59:58;;;;;;;10.60;9.57;;;;;;;;;;5024372;28;20465;-66
2021/01/14 07:02:40;;;;;;;10.67;9.67;;;;;;;;;;5022686;28;20470;-66
2021/01/14 07:05:07;;;;;;;9.43;8.63;;;;;;;;;;5015311;28;20437;-67
2021/01/14 07:07:46;;;;;;;10.17;9.10;;;;;;;;;;5013466;28;20474;-67
2021/01/14 07:10:14;;;;;;;10.10;9.17;;;;;;;;;;5014168;28;20470;-67
2021/01/14 07:12:41;;;;;;;11.93;8.70;;;;;;;;;;5013672;28;20515;-67
2021/01/14 07:15:09;;;;;;;11.40;9.40;;;;;;;;;;5015063;28;20456;-66
2021/01/14 07:17:37;;;;;;;13.27;9.57;;;;;;;;;;5013398;28;20515;-67
2021/01/14 07:20:06;;;;;;;9.73;8.83;;;;;;;;;;5020599;28;20481;-68
2021/01/14 07:22:35;;;;;;;9.30;5.30;;;;;;;;;;5013676;28;20468;-69
2021/01/14 07:25:02;;;;;;;6.70;3.70;;;;;;;;;;5013434;28;20576;-69
2021/01/14 07:27:31;;;;;;;7.67;4.60;;;;;;;;;;5014053;28;20453;-71
2021/01/14 07:29:58;;;;;;;5.50;3.90;;;;;;;;;;5007143;28;20505;-68
2021/01/14 07:32:43;;;;;;;6.83;3.60;;;;;;;;;;5028802;28;20444;-69
2021/01/14 07:35:33;;;;;;;6.60;3.27;;;;;;;;;;5036685;28;20544;-67
2021/01/14 07:38:00;;;;;;;5.30;3.40;;;;;;;;;;5036566;28;20428;-67
2021/01/14 07:40:28;;;;;;;3.63;3.10;;;;;;;;;;5036258;28;20491;-67
2021/01/14 07:42:56;;;;;;;3.40;3.10;;;;;;;;;;5036273;28;20450;-69
2021/01/14 07:45:23;;;;;;;5.70;3.53;;;;;;;;;;5036199;28;20557;-67
2021/01/14 07:47:50;;;;;;;5.77;2.90;;;;;;;;;;5035038;28;20425;-67
2021/01/14 07:50:21;;;;;;;4.27;3.10;;;;;;;;;;5032581;28;20627;-67
2021/01/14 07:52:48;;;;;;;5.90;3.47;;;;;;;;;;5021627;28;20446;-67
2021/01/14 07:55:25;;;;;;;5.27;2.73;;;;;;;;;;5034815;28;20442;-68
2021/01/14 07:58:00;;;;;;;3.50;3.17;;;;;;;;;;5034588;28;20464;-67
2021/01/14 08:00:28;;;;;;;4.43;3.10;;;;;;;;;;5031346;28;20481;-65
2021/01/14 08:03:08;;;;;;;3.47;3.17;;;;;;;;;;5013657;28;20876;-65
2021/01/14 08:05:41;;;;;;;3.80;3.00;;;;;;;;;;5014085;28;21022;-65
2021/01/14 08:08:38;;;;;;;5.00;2.83;;;;;;;;;;5013223;28;21035;-65
2021/01/14 08:11:16;;;;;;;3.13;2.83;;;;;;;;;;4933968;29;20840;-64
2021/01/14 08:14:17;;;;;;;3.87;2.70;;;;;;;;;;5006705;28;20466;-65
2021/01/14 08:16:48;;;;;;;2.87;2.57;;;;;;;;;;5024368;28;20528;-65
2021/01/14 08:19:16;;;;;;;2.97;2.47;;;;;;;;;;5023201;28;20477;-66
2021/01/14 08:21:43;;;;;;;3.23;2.93;;;;;;;;;;5019033;28;20496;-67
2021/01/14 08:24:10;;;;;;;4.83;3.17;;;;;;;;;;5013885;28;20473;-65
2021/01/14 08:26:56;;;;;;;3.90;2.97;;;;;;;;;;5012607;28;20453;-65
2021/01/14 08:29:29;;;;;;;3.23;2.93;;;;;;;;;;5011837;28;20473;-65
2021/01/14 08:31:57;;;;;;;2.57;2.37;;;;;;;;;;5012582;28;20536;-67
2021/01/14 08:34:24;;;;;;;4.90;3.33;;;;;;;;;;4988633;28;20496;-66
2021/01/14 08:36:53;;;;;;;6.10;5.50;;;;;;;;;;5002557;28;20454;-65
2021/01/14 08:39:21;;;;;;;8.13;7.33;;;;;;;;;;5011787;28;20985;-64
2021/01/14 08:41:48;;;;;;;8.87;7.97;;;;;;;;;;5010713;28;20486;-61
2021/01/14 08:44:16;;;;;;;9.63;8.60;;;;;;;;;;5002105;28;20454;-62
2021/01/14 08:46:45;;;;;;;11.53;9.20;;;;;;;;;;5012622;28;20445;-62
2021/01/14 08:49:13;;;;;;;10.97;9.50;;;;;;;;;;5011659;28;20556;-62
2021/01/14 08:51:40;;;;;;;9.23;8.33;;;;;;;;;;5012409;28;20796;-62
2021/01/14 08:54:07;;;;;;;11.83;8.37;;;;;;;;;;5011997;28;20949;-62
2021/01/14 08:56:34;;;;;;;10.60;9.50;;;;;;;;;;5011330;28;20460;-62
2021/01/14 08:59:04;;;;;;;11.70;8.93;;;;;;;;;;5011749;28;20477;-62
2021/01/14 09:01:32;;;;;;;10.20;9.20;;;;;;;;;;5008679;28;20489;-63
2021/01/14 09:03:59;;;;;;;11.07;9.63;;;;;;;;;;5002692;28;20476;-65
2021/01/14 09:06:30;;;;;;;9.97;9.00;;;;;;;;;;5011338;28;20464;-62
2021/01/14 09:08:59;;;;;;;10.50;9.40;;;;;;;;;;5011130;28;20461;-65
2021/01/14 09:11:26;;;;;;;12.63;9.87;;;;;;;;;;5011796;28;20504;-63
2021/01/14 09:14:00;;;;;;;10.30;9.23;;;;;;;;;;5011959;28;20445;-68
2021/01/14 09:16:27;;;;;;;9.40;8.53;;;;;;;;;;5011497;28;20449;-69
2021/01/14 09:18:54;;;;;;;9.50;8.60;;;;;;;;;;5010976;28;20520;-66
2021/01/14 09:23:49;;;;;;;10.53;9.50;;;;;;;;;;5004688;28;20488;-66
2021/01/14 09:26:18;;;;;;;11.13;9.87;;;;;;;;;;5011151;28;20450;-67
2021/01/14 09:28:49;;;;;;;9.70;8.80;;;;;;;;;;5005805;28;21006;-66
2021/01/14 09:31:15;;;;;;;9.93;8.93;;;;;;;;;;5009019;28;20442;-63
2021/01/14 09:33:43;;;;;;;10.77;9.20;;;;;;;;;;5008127;28;20474;-63
2021/01/14 09:36:11;;;;;;;11.20;10.03;;;;;;;;;;5011542;28;20454;-66
2021/01/14 09:38:38;;;;;;;10.60;9.57;;;;;;;;;;5011579;28;20535;-64
2021/01/14 09:41:06;;;;;;;9.67;8.87;;;;;;;;;;5010779;28;20484;-64
2021/01/14 09:43:33;;;;;;;11.90;9.73;;;;;;;;;;5011901;28;20469;-64
2021/01/14 09:46:00;;;;;;;9.90;9.00;;;;;;;;;;5011361;28;20441;-64
2021/01/14 09:48:26;;;;;;;10.53;8.87;;;;;;;;;;5011376;28;20445;-64
2021/01/14 09:50:53;;;;;;;10.87;8.53;;;;;;;;;;5011263;28;20445;-63
2021/01/14 09:53:20;;;;;;;13.83;9.10;;;;;;;;;;5011320;28;20477;-63
2021/01/14 09:55:47;;;;;;;10.27;8.80;;;;;;;;;;5011209;28;20843;-64
2021/01/14 09:58:18;;;;;;;9.73;8.83;;;;;;;;;;5012145;28;20441;-64
2021/01/14 10:00:46;;;;;;;9.73;8.70;;;;;;;;;;4995750;28;20474;-64
2021/01/14 10:03:16;;;;;;;10.10;9.00;;;;;;;;;;5011525;28;20473;-64
2021/01/14 10:05:43;;;;;;;9.87;8.97;;;;;;;;;;5011004;28;20469;-65
2021/01/14 10:08:14;;;;;;;9.50;8.70;;;;;;;;;;5010552;28;20830;-64
2021/01/14 10:10:40;;;;;;;5.77;5.17;;;;;;;;;;5010887;28;20450;-67
2021/01/14 10:13:13;;;;;;;10.23;7.67;;;;;;;;;;5011610;28;20471;-63
2021/01/14 10:15:40;;;;;;;7.30;4.70;;;;;;;;;;5012749;28;20803;-67
2021/01/14 10:18:07;;;;;;;8.63;7.93;;;;;;;;;;5014316;28;20460;-64
2021/01/14 10:20:34;;;;;;;12.53;10.30;;;;;;;;;;5014372;28;21022;-64
2021/01/14 10:23:01;;;;;;;10.27;9.37;;;;;;;;;;5014285;28;20536;-67
2021/01/14 10:25:27;;;;;;;11.97;10.50;;;;;;;;;;5014291;28;20446;-66
2021/01/14 10:28:00;;;;;;;11.40;9.93;;;;;;;;;;5014478;28;20872;-66
2021/01/14 10:30:28;;;;;;;10.90;9.80;;;;;;;;;;5014106;28;21013;-66
2021/01/14 10:33:01;;;;;;;12.10;10.80;;;;;;;;;;5013838;28;20476;-65
2021/01/14 10:35:29;;;;;;;10.70;9.70;;;;;;;;;;5014274;28;20539;-65
2021/01/14 10:38:02;;;;;;;11.23;10.10;;;;;;;;;;5014107;28;20516;-65
2021/01/14 10:40:33;;;;;;;13.50;9.90;;;;;;;;;;5013279;28;20503;-67
2021/01/14 10:43:01;;;;;;;13.93;9.87;;;;;;;;;;5014861;28;20491;-65
2021/01/14 10:45:27;;;;;;;11.60;10.50;;;;;;;;;;5013949;28;20548;-66
2021/01/14 10:48:06;;;;;;;10.77;9.73;;;;;;;;;;5013907;28;20457;-65
2021/01/14 10:50:34;;;;;;;10.83;9.83;;;;;;;;;;5014120;28;20488;-65
2021/01/14 10:53:02;;;;;;;11.30;5.47;;;;;;;;;;5013879;28;20480;-65
2021/01/14 10:55:29;;;;;;;10.37;9.27;;;;;;;;;;5013607;28;20455;-64
2021/01/14 10:57:57;;;;;;;11.20;10.10;;;;;;;;;;5012404;28;20469;-65
2021/01/14 11:00:24;;;;;;;11.70;10.40;;;;;;;;;;4994629;28;20458;-67
2021/01/14 11:03:00;;;;;;;14.00;10.00;;;;;;;;;;5001520;28;20474;-65
2021/01/14 11:05:42;;;;;;;12.20;10.53;;;;;;;;;;5014603;28;20453;-65
2021/01/14 11:08:09;;;;;;;11.77;10.40;;;;;;;;;;5010976;28;20512;-65
2021/01/14 11:10:36;;;;;;;11.70;10.67;;;;;;;;;;5010504;28;20945;-64
2021/01/14 11:13:04;;;;;;;11.53;10.50;;;;;;;;;;5012782;28;20837;-64
2021/01/14 11:15:30;;;;;;;13.93;11.20;;;;;;;;;;5013896;28;20480;-65
2021/01/14 11:17:59;;;;;;;11.67;10.43;;;;;;;;;;5012750;28;20461;-64
2021/01/14 11:20:25;;;;;;;13.43;10.00;;;;;;;;;;5013879;28;20450;-65
2021/01/14 11:22:52;;;;;;;11.53;10.53;;;;;;;;;;5013842;28;20481;-67
2021/01/14 11:25:20;;;;;;;12.90;11.63;;;;;;;;;;5013517;28;20453;-66
2021/01/14 11:27:46;;;;;;;11.73;10.73;;;;;;;;;;5013515;28;20449;-65
2021/01/14 11:30:13;;;;;;;11.97;10.27;;;;;;;;;;5013774;28;20820;-64
2021/01/14 11:32:40;;;;;;;12.03;10.80;;;;;;;;;;5013310;28;20472;-64
2021/01/14 11:35:07;;;;;;;10.67;9.70;;;;;;;;;;5013772;28;20861;-64
2021/01/14 11:37:34;;;;;;;11.60;10.60;;;;;;;;;;5013781;28;20458;-67
2021/01/14 11:40:01;;;;;;;13.23;10.80;;;;;;;;;;5013075;28;20456;-65
2021/01/14 11:42:28;;;;;;;12.33;11.20;;;;;;;;;;5013740;28;20489;-63
2021/01/14 11:44:55;;;;;;;12.60;11.33;;;;;;;;;;5014420;28;20454;-64
2021/01/14 11:47:22;;;;;;;11.80;10.60;;;;;;;;;;5012244;28;20503;-64
2021/01/14 11:49:49;;;;;;;11.50;10.50;;;;;;;;;;5013115;28;20456;-64
2021/01/14 11:52:15;;;;;;;11.73;10.07;;;;;;;;;;5012997;28;20474;-65
2021/01/14 11:54:42;;;;;;;12.10;10.90;;;;;;;;;;4993609;28;20454;-64
2021/01/14 11:57:09;;;;;;;11.83;10.67;;;;;;;;;;4995039;28;20450;-66
2021/01/14 11:59:36;;;;;;;14.57;12.20;;;;;;;;;;4993542;28;20450;-64
2021/01/14 12:02:03;;;;;;;14.47;11.93;;;;;;;;;;4993803;28;20490;-65
2021/01/14 12:04:30;;;;;;;11.73;10.63;;;;;;;;;;4994568;28;20454;-64
2021/01/14 12:06:56;;;;;;;12.67;11.57;;;;;;;;;;4993614;28;20454;-64
2021/01/14 12:09:23;;;;;;;12.37;11.20;;;;;;;;;;4992868;28;20474;-65
2021/01/14 12:11:53;;;;;;;11.83;10.60;;;;;;;;;;4999664;28;20461;-64
2021/01/14 12:14:20;;;;;;;14.27;12.53;;;;;;;;;;5013512;28;20704;-66
2021/01/14 12:16:47;;;;;;;12.70;11.23;;;;;;;;;;5012193;28;20462;-64
2021/01/14 12:19:14;;;;;;;12.67;11.47;;;;;;;;;;5012983;28;20540;-65
2021/01/14 12:21:41;;;;;;;12.57;11.27;;;;;;;;;;5012077;28;20497;-66
2021/01/14 12:24:08;;;;;;;11.83;10.70;;;;;;;;;;4993165;28;20453;-65
2021/01/14 12:26:34;;;;;;;12.20;11.00;;;;;;;;;;4993317;28;20447;-65
2021/01/14 12:29:01;;;;;;;12.53;11.00;;;;;;;;;;4993076;28;20509;-64
2021/01/14 12:31:27;;;;;;;15.67;11.80;;;;;;;;;;4992648;28;20935;-65
2021/01/14 12:33:56;;;;;;;12.50;11.27;;;;;;;;;;5007221;28;20450;-66
2021/01/14 12:36:23;;;;;;;12.93;11.40;;;;;;;;;;5012115;28;20450;-64
2021/01/14 12:38:49;;;;;;;13.40;12.10;;;;;;;;;;5011405;28;20815;-65
2021/01/14 12:41:16;;;;;;;11.77;10.70;;;;;;;;;;5012319;28;20477;-66
2021/01/14 12:43:42;;;;;;;12.17;11.00;;;;;;;;;;5012225;28;20465;-65
2021/01/14 12:46:09;;;;;;;12.43;11.10;;;;;;;;;;5012418;28;20975;-65
2021/01/14 12:48:36;;;;;;;12.17;10.97;;;;;;;;;;5011919;28;20453;-65
2021/01/14 12:51:05;;;;;;;12.30;11.20;;;;;;;;;;5011970;28;20456;-65
2021/01/14 12:53:32;;;;;;;12.37;11.27;;;;;;;;;;5011767;28;20497;-65
2021/01/14 12:55:58;;;;;;;13.90;11.80;;;;;;;;;;5012481;28;20476;-66
2021/01/14 12:58:26;;;;;;;12.50;11.40;;;;;;;;;;5011068;28;20976;-65
2021/01/14 13:00:53;;;;;;;12.87;10.80;;;;;;;;;;5012248;28;20456;-65
2021/01/14 13:03:20;;;;;;;12.03;10.47;;;;;;;;;;5012109;28;20480;-66
2021/01/14 13:05:47;;;;;;;12.03;10.90;;;;;;;;;;5010637;28;20466;-65
2021/01/14 13:08:15;;;;;;;12.50;11.20;;;;;;;;;;5011695;28;20505;-64
2021/01/14 13:10:41;;;;;;;11.93;10.73;;;;;;;;;;5011829;28;20835;-65
2021/01/14 13:13:08;;;;;;;12.17;11.07;;;;;;;;;;5011570;28;20972;-65
2021/01/14 13:15:35;;;;;;;12.03;11.03;;;;;;;;;;5012173;28;20449;-67
2021/01/14 13:18:01;;;;;;;12.27;11.07;;;;;;;;;;5011409;28;20450;-64
2021/01/14 13:20:28;;;;;;;10.73;9.93;;;;;;;;;;5011113;28;20512;-65
2021/01/14 13:22:55;;;;;;;11.33;10.33;;;;;;;;;;5010837;28;20473;-65
2021/01/14 13:25:23;;;;;;;12.60;11.40;;;;;;;;;;5011760;28;20814;-64
2021/01/14 13:27:49;;;;;;;14.87;10.10;;;;;;;;;;5011440;28;20449;-65
2021/01/14 13:30:17;;;;;;;12.50;11.30;;;;;;;;;;5012019;28;20540;-64
2021/01/14 13:32:44;;;;;;;12.50;11.30;;;;;;;;;;5010051;28;20489;-65
2021/01/14 13:35:11;;;;;;;12.90;10.80;;;;;;;;;;5011225;28;20453;-65
2021/01/14 13:37:38;;;;;;;11.83;10.80;;;;;;;;;;5011557;28;20473;-64
2021/01/14 13:40:05;;;;;;;12.10;11.00;;;;;;;;;;5011819;28;20468;-64
2021/01/14 13:42:32;;;;;;;12.57;11.57;;;;;;;;;;5011338;28;20489;-66
2021/01/14 13:44:59;;;;;;;12.00;10.90;;;;;;;;;;5011253;28;21022;-64
2021/01/14 13:47:26;;;;;;;13.73;12.30;;;;;;;;;;5011187;28;20450;-66
2021/01/14 13:49:52;;;;;;;12.77;11.60;;;;;;;;;;5009785;28;20473;-64
2021/01/14 13:52:19;;;;;;;13.37;12.17;;;;;;;;;;5016150;28;20481;-65
2021/01/14 13:54:46;;;;;;;12.80;11.60;;;;;;;;;;5016546;28;20477;-66
2021/01/14 13:57:12;;;;;;;12.80;11.70;;;;;;;;;;5017051;28;20453;-65
2021/01/14 13:59:40;;;;;;;13.20;11.90;;;;;;;;;;5016306;28;20445;-64
2021/01/14 14:02:06;;;;;;;13.40;12.13;;;;;;;;;;5014785;28;20540;-64
2021/01/14 14:04:33;;;;;;;12.93;11.73;;;;;;;;;;5015723;28;20449;-64
2021/01/14 14:07:01;;;;;;;12.43;11.17;;;;;;;;;;5015142;28;20457;-64
2021/01/14 14:09:27;;;;;;;12.90;11.80;;;;;;;;;;5014536;28;20449;-64
2021/01/14 14:11:54;;;;;;;12.60;11.40;;;;;;;;;;5015318;28;20469;-66
2021/01/14 14:14:21;;;;;;;11.90;10.80;;;;;;;;;;5015745;28;20453;-64
2021/01/14 14:16:53;;;;;;;13.37;12.07;;;;;;;;;;5015385;28;20469;-64
2021/01/14 14:19:19;;;;;;;14.03;12.67;;;;;;;;;;5016904;28;20548;-66
2021/01/14 14:21:50;;;;;;;12.53;11.43;;;;;;;;;;5017464;28;20485;-66
2021/01/14 14:24:17;;;;;;;12.47;11.47;;;;;;;;;;5017548;28;20506;-65
2021/01/14 14:26:44;;;;;;;12.80;11.60;;;;;;;;;;5017820;28;20663;-65
2021/01/14 14:29:11;;;;;;;12.90;11.60;;;;;;;;;;5016883;28;20453;-64
2021/01/14 14:31:38;;;;;;;11.90;10.80;;;;;;;;;;5018153;28;20495;-64
2021/01/14 14:34:06;;;;;;;12.27;11.13;;;;;;;;;;5014280;28;20445;-65
2021/01/14 14:36:33;;;;;;;11.50;10.60;;;;;;;;;;5014911;28;20937;-64
2021/01/14 14:39:00;;;;;;;12.73;11.47;;;;;;;;;;5014433;28;20481;-64
2021/01/14 14:41:26;;;;;;;13.00;11.73;;;;;;;;;;5014834;28;20490;-67